ANACAPA ISLAND CA US current weather conditions

sailwx.info

Wind from 002 at 2 knots gusting 4

Air temperature 18.3° C
Dewpoint 17.2° C

Last reported at 2015-Jul-28 12:23 UTC.
Time now 2015-Jul-28 13:17 UTC

Location: N 34°01' W 119°22'.
View on Google Maps.

See reports from other nearby stations

  
Tides and Currents Weather Stations Pressure Air Temp Water Temp Dewpoint Dewpoint Depression Visibility Wind Speed Wind Dir Waves Ship Positions
date/time (UTC)wind fromknots sea level pressurealtimeterstation pressurevisibilityair tempwater tempwave heightnotes
2015-Jul-28 12:23 002 2 gusting 4 18.3
2015-Jul-28 11:23 349 0 gusting 2 17.8
2015-Jul-28 10:23 296 1 gusting 4 17.8
2015-Jul-28 09:23 297 2 gusting 6 18.3
2015-Jul-28 08:23 18.3
2015-Jul-28 07:23 307 2 gusting 9 18.3
2015-Jul-28 06:23 308 6 gusting 11 18.3
2015-Jul-28 05:23 330 6 gusting 12 18.3
2015-Jul-28 04:23 329 6 gusting 11 18.3
2015-Jul-28 03:23 321 4 gusting 9 18.9
2015-Jul-28 02:23 332 4 gusting 6 20.0
2015-Jul-28 01:23 309 3 gusting 7 21.7
2015-Jul-28 00:23 301 5 gusting 10 21.7
2015-Jul-27 23:23 302 6 gusting 12 21.1
2015-Jul-27 22:23 292 6 gusting 10 21.7
2015-Jul-27 21:23 298 4 gusting 10 23.3
2015-Jul-27 20:23 303 6 gusting 9 23.3
2015-Jul-27 19:23 287 3 gusting 6 22.2
2015-Jul-27 18:23 309 2 gusting 5 23.3
2015-Jul-27 17:23 039 1 gusting 4 20.6
2015-Jul-27 16:23 024 2 gusting 6 20.0
2015-Jul-27 15:23 015 3 gusting 6 19.4
2015-Jul-27 14:23 286 0 gusting 3 19.4
2015-Jul-27 13:23 18.9
2015-Jul-27 12:23 17.8
2015-Jul-27 11:23 025 2 gusting 5 17.8
2015-Jul-27 10:23 357 4 gusting 10 17.8
2015-Jul-27 09:23 342 9 gusting 11 17.8
2015-Jul-27 08:23 332 7 gusting 13 17.8
2015-Jul-27 07:23 325 7 gusting 13 18.3
2015-Jul-27 06:23 309 4 gusting 8 18.3
2015-Jul-27 05:23 302 6 gusting 13 18.3
2015-Jul-27 04:23 302 7 gusting 13 18.3
2015-Jul-27 03:23 301 8 gusting 14 18.3
2015-Jul-27 02:23 298 8 gusting 17 19.4
2015-Jul-27 01:23 295 9 gusting 18 20.6
2015-Jul-27 00:23 304 11 gusting 19 20.6
2015-Jul-26 23:23 304 13 gusting 20 20.6
2015-Jul-26 22:23 302 10 gusting 16 21.1
2015-Jul-26 21:23 300 8 gusting 13 21.7
2015-Jul-26 20:23 298 6 gusting 11 22.2
2015-Jul-26 19:23 300 6 gusting 10 22.2
2015-Jul-26 18:23 327 5 gusting 10 21.1
2015-Jul-26 17:23 304 5 gusting 13 21.7
2015-Jul-26 16:23 304 8 gusting 17 20.0
2015-Jul-26 15:23 331 12 gusting 20 18.3
2015-Jul-26 14:23 301 13 gusting 22 18.3
2015-Jul-26 13:23 305 13 gusting 20 17.8